sensor_id;sensor_type;location;lat;lon;timestamp;P1;durP1;ratioP1;P2;durP2;ratioP2
11255;SDS011;5685;52.384;13.420;2023-03-12T00:02:15;70.57;;;37.17;;
11255;SDS011;5685;52.384;13.420;2023-03-12T00:05:18;70.53;;;37.17;;
11255;SDS011;5685;52.384;13.420;2023-03-12T00:08:21;71.10;;;37.40;;
11255;SDS011;5685;52.384;13.420;2023-03-12T00:11:24;70.30;;;36.97;;
11255;SDS011;5685;52.384;13.420;2023-03-12T00:14:26;70.87;;;37.10;;
11255;SDS011;5685;52.384;13.420;2023-03-12T00:17:30;70.67;;;36.97;;
11255;SDS011;5685;52.384;13.420;2023-03-12T00:20:33;70.67;;;37.00;;
11255;SDS011;5685;52.384;13.420;2023-03-12T00:23:36;70.80;;;36.90;;
11255;SDS011;5685;52.384;13.420;2023-03-12T00:26:38;70.57;;;37.03;;
11255;SDS011;5685;52.384;13.420;2023-03-12T00:29:41;69.83;;;37.10;;
11255;SDS011;5685;52.384;13.420;2023-03-12T00:32:45;70.07;;;37.20;;
11255;SDS011;5685;52.384;13.420;2023-03-12T00:35:48;70.07;;;37.03;;
11255;SDS011;5685;52.384;13.420;2023-03-12T00:38:51;71.20;;;37.13;;
11255;SDS011;5685;52.384;13.420;2023-03-12T00:41:54;70.63;;;37.03;;
11255;SDS011;5685;52.384;13.420;2023-03-12T00:44:56;70.70;;;37.17;;
11255;SDS011;5685;52.384;13.420;2023-03-12T00:48:00;71.10;;;37.03;;
11255;SDS011;5685;52.384;13.420;2023-03-12T00:51:03;70.33;;;36.80;;
11255;SDS011;5685;52.384;13.420;2023-03-12T00:54:06;71.13;;;37.00;;
11255;SDS011;5685;52.384;13.420;2023-03-12T00:57:09;70.67;;;36.70;;
11255;SDS011;5685;52.384;13.420;2023-03-12T01:00:12;70.60;;;36.90;;
11255;SDS011;5685;52.384;13.420;2023-03-12T01:03:16;71.10;;;37.23;;
11255;SDS011;5685;52.384;13.420;2023-03-12T01:06:19;70.70;;;36.77;;
11255;SDS011;5685;52.384;13.420;2023-03-12T01:09:22;71.03;;;37.03;;
11255;SDS011;5685;52.384;13.420;2023-03-12T01:12:25;70.43;;;36.97;;
11255;SDS011;5685;52.384;13.420;2023-03-12T01:15:28;70.70;;;36.90;;
11255;SDS011;5685;52.384;13.420;2023-03-12T01:18:32;70.57;;;37.00;;
11255;SDS011;5685;52.384;13.420;2023-03-12T01:21:34;70.50;;;37.00;;
11255;SDS011;5685;52.384;13.420;2023-03-12T01:24:37;70.30;;;36.83;;
11255;SDS011;5685;52.384;13.420;2023-03-12T01:27:40;70.27;;;37.20;;
11255;SDS011;5685;52.384;13.420;2023-03-12T01:30:43;70.43;;;36.90;;
11255;SDS011;5685;52.384;13.420;2023-03-12T01:33:48;70.60;;;36.97;;
11255;SDS011;5685;52.384;13.420;2023-03-12T01:36:51;70.43;;;37.20;;
11255;SDS011;5685;52.384;13.420;2023-03-12T01:39:54;70.50;;;36.90;;
11255;SDS011;5685;52.384;13.420;2023-03-12T01:42:57;69.83;;;36.83;;
11255;SDS011;5685;52.384;13.420;2023-03-12T01:46:05;70.30;;;37.00;;
11255;SDS011;5685;52.384;13.420;2023-03-12T01:49:19;70.20;;;36.80;;
11255;SDS011;5685;52.384;13.420;2023-03-12T01:52:25;70.23;;;37.00;;
11255;SDS011;5685;52.384;13.420;2023-03-12T01:55:29;70.60;;;37.00;;
11255;SDS011;5685;52.384;13.420;2023-03-12T01:58:32;70.30;;;36.80;;
11255;SDS011;5685;52.384;13.420;2023-03-12T02:01:36;70.30;;;37.03;;
11255;SDS011;5685;52.384;13.420;2023-03-12T02:04:41;70.87;;;37.23;;
11255;SDS011;5685;52.384;13.420;2023-03-12T02:07:45;70.40;;;36.90;;
11255;SDS011;5685;52.384;13.420;2023-03-12T02:10:47;70.43;;;36.90;;
11255;SDS011;5685;52.384;13.420;2023-03-12T02:13:50;70.37;;;37.00;;
11255;SDS011;5685;52.384;13.420;2023-03-12T02:16:53;70.60;;;36.90;;
11255;SDS011;5685;52.384;13.420;2023-03-12T02:19:59;70.60;;;36.87;;
11255;SDS011;5685;52.384;13.420;2023-03-12T02:23:08;70.97;;;36.80;;
11255;SDS011;5685;52.384;13.420;2023-03-12T02:26:14;71.23;;;37.10;;
11255;SDS011;5685;52.384;13.420;2023-03-12T02:29:18;70.93;;;36.87;;
11255;SDS011;5685;52.384;13.420;2023-03-12T02:32:22;70.80;;;36.70;;
11255;SDS011;5685;52.384;13.420;2023-03-12T02:35:27;70.80;;;36.63;;
11255;SDS011;5685;52.384;13.420;2023-03-12T02:38:32;70.60;;;36.70;;
11255;SDS011;5685;52.384;13.420;2023-03-12T02:41:44;70.93;;;36.97;;
11255;SDS011;5685;52.384;13.420;2023-03-12T02:44:49;70.40;;;36.90;;
11255;SDS011;5685;52.384;13.420;2023-03-12T02:47:51;70.50;;;37.13;;
11255;SDS011;5685;52.384;13.420;2023-03-12T02:50:54;70.47;;;36.90;;
11255;SDS011;5685;52.384;13.420;2023-03-12T02:53:57;69.73;;;36.77;;
11255;SDS011;5685;52.384;13.420;2023-03-12T02:57:01;70.43;;;37.07;;
11255;SDS011;5685;52.384;13.420;2023-03-12T03:00:04;69.73;;;36.70;;
11255;SDS011;5685;52.384;13.420;2023-03-12T03:03:11;69.50;;;37.00;;
11255;SDS011;5685;52.384;13.420;2023-03-12T03:06:13;69.27;;;36.80;;
11255;SDS011;5685;52.384;13.420;2023-03-12T03:09:16;68.73;;;36.50;;
11255;SDS011;5685;52.384;13.420;2023-03-12T03:12:22;69.47;;;37.00;;
11255;SDS011;5685;52.384;13.420;2023-03-12T03:15:25;69.73;;;37.13;;
11255;SDS011;5685;52.384;13.420;2023-03-12T03:18:28;69.97;;;36.93;;
11255;SDS011;5685;52.384;13.420;2023-03-12T03:21:30;70.13;;;37.00;;
11255;SDS011;5685;52.384;13.420;2023-03-12T03:24:34;70.67;;;37.23;;
11255;SDS011;5685;52.384;13.420;2023-03-12T03:27:38;70.00;;;36.47;;
11255;SDS011;5685;52.384;13.420;2023-03-12T03:30:40;71.07;;;36.80;;
11255;SDS011;5685;52.384;13.420;2023-03-12T03:33:43;70.83;;;36.77;;
11255;SDS011;5685;52.384;13.420;2023-03-12T03:36:45;71.30;;;36.80;;
11255;SDS011;5685;52.384;13.420;2023-03-12T03:39:48;71.30;;;37.07;;
11255;SDS011;5685;52.384;13.420;2023-03-12T03:42:53;70.37;;;36.77;;
11255;SDS011;5685;52.384;13.420;2023-03-12T03:45:56;71.33;;;36.80;;
11255;SDS011;5685;52.384;13.420;2023-03-12T03:48:59;71.57;;;36.93;;
11255;SDS011;5685;52.384;13.420;2023-03-12T03:52:02;70.97;;;36.47;;
11255;SDS011;5685;52.384;13.420;2023-03-12T03:55:05;71.20;;;36.60;;
11255;SDS011;5685;52.384;13.420;2023-03-12T03:58:10;71.43;;;36.83;;
11255;SDS011;5685;52.384;13.420;2023-03-12T04:01:13;71.33;;;36.70;;
11255;SDS011;5685;52.384;13.420;2023-03-12T04:04:16;71.53;;;36.67;;
11255;SDS011;5685;52.384;13.420;2023-03-12T04:07:19;71.07;;;36.50;;
11255;SDS011;5685;52.384;13.420;2023-03-12T04:10:23;70.83;;;36.60;;
11255;SDS011;5685;52.384;13.420;2023-03-12T04:13:27;70.83;;;36.63;;
11255;SDS011;5685;52.384;13.420;2023-03-12T04:16:30;71.10;;;36.83;;
11255;SDS011;5685;52.384;13.420;2023-03-12T04:19:33;72.03;;;37.00;;
11255;SDS011;5685;52.384;13.420;2023-03-12T04:22:36;71.20;;;36.60;;
11255;SDS011;5685;52.384;13.420;2023-03-12T04:25:38;71.00;;;36.60;;
11255;SDS011;5685;52.384;13.420;2023-03-12T04:28:42;71.60;;;36.70;;
11255;SDS011;5685;52.384;13.420;2023-03-12T04:31:45;71.60;;;36.70;;
11255;SDS011;5685;52.384;13.420;2023-03-12T04:34:48;71.90;;;36.83;;
11255;SDS011;5685;52.384;13.420;2023-03-12T04:37:50;71.30;;;36.50;;
11255;SDS011;5685;52.384;13.420;2023-03-12T04:40:56;71.97;;;36.97;;
11255;SDS011;5685;52.384;13.420;2023-03-12T04:44:01;71.97;;;36.87;;
11255;SDS011;5685;52.384;13.420;2023-03-12T04:47:04;71.67;;;36.77;;
11255;SDS011;5685;52.384;13.420;2023-03-12T04:50:07;71.23;;;36.47;;
11255;SDS011;5685;52.384;13.420;2023-03-12T04:53:10;71.70;;;36.60;;
11255;SDS011;5685;52.384;13.420;2023-03-12T04:56:13;71.53;;;36.63;;
11255;SDS011;5685;52.384;13.420;2023-03-12T04:59:17;72.07;;;36.80;;
11255;SDS011;5685;52.384;13.420;2023-03-12T05:02:20;72.00;;;36.77;;
11255;SDS011;5685;52.384;13.420;2023-03-12T05:05:23;71.57;;;36.63;;
11255;SDS011;5685;52.384;13.420;2023-03-12T05:08:26;71.80;;;36.70;;
11255;SDS011;5685;52.384;13.420;2023-03-12T05:11:28;71.43;;;36.60;;
11255;SDS011;5685;52.384;13.420;2023-03-12T05:14:32;72.17;;;36.93;;
11255;SDS011;5685;52.384;13.420;2023-03-12T05:17:35;71.67;;;36.53;;
11255;SDS011;5685;52.384;13.420;2023-03-12T05:20:38;71.70;;;36.53;;
11255;SDS011;5685;52.384;13.420;2023-03-12T05:23:40;71.53;;;36.53;;
11255;SDS011;5685;52.384;13.420;2023-03-12T05:26:43;72.23;;;36.93;;
11255;SDS011;5685;52.384;13.420;2023-03-12T05:29:47;71.97;;;36.70;;
11255;SDS011;5685;52.384;13.420;2023-03-12T05:32:50;71.73;;;36.63;;
11255;SDS011;5685;52.384;13.420;2023-03-12T05:35:53;71.43;;;36.43;;
11255;SDS011;5685;52.384;13.420;2023-03-12T05:38:55;71.63;;;36.63;;
11255;SDS011;5685;52.384;13.420;2023-03-12T05:41:58;72.03;;;36.77;;
11255;SDS011;5685;52.384;13.420;2023-03-12T05:45:02;72.50;;;36.87;;
11255;SDS011;5685;52.384;13.420;2023-03-12T05:48:06;72.27;;;36.77;;
11255;SDS011;5685;52.384;13.420;2023-03-12T05:51:08;71.43;;;36.37;;
11255;SDS011;5685;52.384;13.420;2023-03-12T05:54:11;71.90;;;36.73;;
11255;SDS011;5685;52.384;13.420;2023-03-12T05:57:14;71.77;;;36.60;;
11255;SDS011;5685;52.384;13.420;2023-03-12T06:00:18;71.53;;;36.43;;
11255;SDS011;5685;52.384;13.420;2023-03-12T06:03:22;72.53;;;37.20;;
11255;SDS011;5685;52.384;13.420;2023-03-12T06:06:24;71.97;;;36.80;;
11255;SDS011;5685;52.384;13.420;2023-03-12T06:09:27;71.97;;;36.87;;
11255;SDS011;5685;52.384;13.420;2023-03-12T06:12:30;72.07;;;36.87;;
11255;SDS011;5685;52.384;13.420;2023-03-12T06:15:34;72.00;;;36.80;;
11255;SDS011;5685;52.384;13.420;2023-03-12T06:18:37;71.37;;;36.53;;
11255;SDS011;5685;52.384;13.420;2023-03-12T06:21:41;71.40;;;36.43;;
11255;SDS011;5685;52.384;13.420;2023-03-12T06:24:43;72.10;;;36.83;;
11255;SDS011;5685;52.384;13.420;2023-03-12T06:27:46;71.17;;;36.43;;
11255;SDS011;5685;52.384;13.420;2023-03-12T06:30:51;71.63;;;36.73;;
11255;SDS011;5685;52.384;13.420;2023-03-12T06:33:54;71.27;;;36.47;;
11255;SDS011;5685;52.384;13.420;2023-03-12T06:36:56;71.40;;;36.57;;
11255;SDS011;5685;52.384;13.420;2023-03-12T06:39:59;71.87;;;37.00;;
11255;SDS011;5685;52.384;13.420;2023-03-12T06:43:02;71.40;;;36.57;;
11255;SDS011;5685;52.384;13.420;2023-03-12T06:46:09;71.67;;;36.77;;
11255;SDS011;5685;52.384;13.420;2023-03-12T06:49:14;71.83;;;36.90;;
11255;SDS011;5685;52.384;13.420;2023-03-12T06:52:17;71.57;;;36.57;;
11255;SDS011;5685;52.384;13.420;2023-03-12T06:55:19;70.73;;;36.37;;
11255;SDS011;5685;52.384;13.420;2023-03-12T06:58:22;71.17;;;36.63;;
11255;SDS011;5685;52.384;13.420;2023-03-12T07:01:26;70.40;;;36.83;;
11255;SDS011;5685;52.384;13.420;2023-03-12T07:04:29;68.53;;;36.50;;
11255;SDS011;5685;52.384;13.420;2023-03-12T07:07:32;68.47;;;36.47;;
11255;SDS011;5685;52.384;13.420;2023-03-12T07:10:34;68.13;;;36.37;;
11255;SDS011;5685;52.384;13.420;2023-03-12T07:13:37;68.40;;;36.60;;
11255;SDS011;5685;52.384;13.420;2023-03-12T07:16:41;69.00;;;36.77;;
11255;SDS011;5685;52.384;13.420;2023-03-12T07:19:44;68.47;;;36.73;;
11255;SDS011;5685;52.384;13.420;2023-03-12T07:22:47;68.27;;;36.50;;
11255;SDS011;5685;52.384;13.420;2023-03-12T07:25:49;68.23;;;36.70;;
11255;SDS011;5685;52.384;13.420;2023-03-12T07:28:53;68.93;;;36.90;;
11255;SDS011;5685;52.384;13.420;2023-03-12T07:31:57;68.23;;;36.40;;
11255;SDS011;5685;52.384;13.420;2023-03-12T07:35:00;68.17;;;36.40;;
11255;SDS011;5685;52.384;13.420;2023-03-12T07:38:03;68.63;;;36.60;;
11255;SDS011;5685;52.384;13.420;2023-03-12T07:41:06;68.60;;;36.50;;
11255;SDS011;5685;52.384;13.420;2023-03-12T07:44:08;68.97;;;36.60;;
11255;SDS011;5685;52.384;13.420;2023-03-12T07:47:13;69.03;;;36.77;;
11255;SDS011;5685;52.384;13.420;2023-03-12T07:50:16;68.97;;;36.70;;
11255;SDS011;5685;52.384;13.420;2023-03-12T07:53:19;68.37;;;36.30;;
11255;SDS011;5685;52.384;13.420;2023-03-12T07:56:22;68.07;;;36.30;;
11255;SDS011;5685;52.384;13.420;2023-03-12T07:59:24;67.67;;;36.30;;
11255;SDS011;5685;52.384;13.420;2023-03-12T08:02:28;68.13;;;36.57;;
11255;SDS011;5685;52.384;13.420;2023-03-12T08:05:31;67.63;;;36.57;;
11255;SDS011;5685;52.384;13.420;2023-03-12T08:08:34;67.90;;;36.40;;
11255;SDS011;5685;52.384;13.420;2023-03-12T08:11:41;66.97;;;36.10;;
11255;SDS011;5685;52.384;13.420;2023-03-12T08:14:43;67.67;;;36.40;;
11255;SDS011;5685;52.384;13.420;2023-03-12T08:17:48;67.80;;;36.60;;
11255;SDS011;5685;52.384;13.420;2023-03-12T08:20:51;68.13;;;36.60;;
11255;SDS011;5685;52.384;13.420;2023-03-12T08:23:54;67.53;;;36.23;;
11255;SDS011;5685;52.384;13.420;2023-03-12T08:26:56;67.93;;;36.40;;
11255;SDS011;5685;52.384;13.420;2023-03-12T08:29:59;67.70;;;36.20;;
11255;SDS011;5685;52.384;13.420;2023-03-12T08:33:04;68.17;;;36.50;;
11255;SDS011;5685;52.384;13.420;2023-03-12T08:36:07;67.60;;;36.20;;
11255;SDS011;5685;52.384;13.420;2023-03-12T08:39:10;68.10;;;36.50;;
11255;SDS011;5685;52.384;13.420;2023-03-12T08:42:12;68.43;;;36.73;;
11255;SDS011;5685;52.384;13.420;2023-03-12T08:45:15;68.00;;;36.50;;
11255;SDS011;5685;52.384;13.420;2023-03-12T08:48:19;67.93;;;36.50;;
11255;SDS011;5685;52.384;13.420;2023-03-12T08:51:22;68.03;;;36.50;;
11255;SDS011;5685;52.384;13.420;2023-03-12T08:54:25;68.37;;;36.60;;
11255;SDS011;5685;52.384;13.420;2023-03-12T08:57:27;68.27;;;36.60;;
11255;SDS011;5685;52.384;13.420;2023-03-12T09:00:30;68.20;;;36.47;;
11255;SDS011;5685;52.384;13.420;2023-03-12T09:03:35;67.77;;;36.37;;
11255;SDS011;5685;52.384;13.420;2023-03-12T09:06:37;67.67;;;36.23;;
11255;SDS011;5685;52.384;13.420;2023-03-12T09:09:40;67.90;;;36.27;;
11255;SDS011;5685;52.384;13.420;2023-03-12T09:12:42;68.63;;;36.53;;
11255;SDS011;5685;52.384;13.420;2023-03-12T09:15:45;69.00;;;36.43;;
11255;SDS011;5685;52.384;13.420;2023-03-12T09:18:49;69.30;;;36.67;;
11255;SDS011;5685;52.384;13.420;2023-03-12T09:21:52;68.67;;;36.57;;
11255;SDS011;5685;52.384;13.420;2023-03-12T09:24:55;69.53;;;36.73;;
11255;SDS011;5685;52.384;13.420;2023-03-12T09:27:58;69.03;;;36.30;;
11255;SDS011;5685;52.384;13.420;2023-03-12T09:31:01;69.90;;;36.70;;
11255;SDS011;5685;52.384;13.420;2023-03-12T09:34:06;69.70;;;36.57;;
11255;SDS011;5685;52.384;13.420;2023-03-12T09:37:08;69.70;;;36.60;;
11255;SDS011;5685;52.384;13.420;2023-03-12T09:40:11;70.40;;;36.90;;
11255;SDS011;5685;52.384;13.420;2023-03-12T09:43:20;70.20;;;36.93;;
11255;SDS011;5685;52.384;13.420;2023-03-12T09:46:25;69.93;;;36.80;;
11255;SDS011;5685;52.384;13.420;2023-03-12T09:49:33;69.80;;;36.70;;
11255;SDS011;5685;52.384;13.420;2023-03-12T09:52:41;69.90;;;36.83;;
11255;SDS011;5685;52.384;13.420;2023-03-12T09:55:48;69.80;;;36.77;;
11255;SDS011;5685;52.384;13.420;2023-03-12T09:58:52;69.83;;;36.87;;
11255;SDS011;5685;52.384;13.420;2023-03-12T10:01:55;69.20;;;36.70;;
11255;SDS011;5685;52.384;13.420;2023-03-12T10:05:01;69.53;;;36.80;;
11255;SDS011;5685;52.384;13.420;2023-03-12T10:08:09;69.33;;;36.93;;
11255;SDS011;5685;52.384;13.420;2023-03-12T10:11:18;69.77;;;36.67;;
11255;SDS011;5685;52.384;13.420;2023-03-12T10:14:31;70.43;;;36.80;;
11255;SDS011;5685;52.384;13.420;2023-03-12T10:17:46;69.60;;;36.50;;
11255;SDS011;5685;52.384;13.420;2023-03-12T10:20:59;70.50;;;36.70;;
11255;SDS011;5685;52.384;13.420;2023-03-12T10:24:19;69.83;;;36.53;;
11255;SDS011;5685;52.384;13.420;2023-03-12T10:27:29;69.70;;;36.40;;
11255;SDS011;5685;52.384;13.420;2023-03-12T10:30:32;70.03;;;36.50;;
11255;SDS011;5685;52.384;13.420;2023-03-12T10:33:38;69.93;;;36.67;;
11255;SDS011;5685;52.384;13.420;2023-03-12T10:36:44;70.63;;;36.90;;
11255;SDS011;5685;52.384;13.420;2023-03-12T10:39:48;71.17;;;37.00;;
11255;SDS011;5685;52.384;13.420;2023-03-12T10:42:51;71.17;;;36.97;;
11255;SDS011;5685;52.384;13.420;2023-03-12T10:45:56;71.43;;;37.07;;
11255;SDS011;5685;52.384;13.420;2023-03-12T10:52:25;70.80;;;36.67;;
11255;SDS011;5685;52.384;13.420;2023-03-12T10:55:28;71.07;;;36.70;;
11255;SDS011;5685;52.384;13.420;2023-03-12T10:58:35;71.20;;;36.80;;
11255;SDS011;5685;52.384;13.420;2023-03-12T11:01:42;70.80;;;36.70;;
11255;SDS011;5685;52.384;13.420;2023-03-12T11:04:49;70.70;;;36.70;;
11255;SDS011;5685;52.384;13.420;2023-03-12T11:07:54;70.80;;;36.63;;
11255;SDS011;5685;52.384;13.420;2023-03-12T11:10:59;70.77;;;36.57;;
11255;SDS011;5685;52.384;13.420;2023-03-12T11:14:04;71.30;;;36.70;;
11255;SDS011;5685;52.384;13.420;2023-03-12T11:17:18;71.17;;;36.60;;
11255;SDS011;5685;52.384;13.420;2023-03-12T11:20:25;71.10;;;36.67;;
11255;SDS011;5685;52.384;13.420;2023-03-12T11:23:30;70.87;;;36.70;;
11255;SDS011;5685;52.384;13.420;2023-03-12T11:26:34;71.50;;;37.07;;
11255;SDS011;5685;52.384;13.420;2023-03-12T11:29:42;71.37;;;36.77;;
11255;SDS011;5685;52.384;13.420;2023-03-12T11:32:47;71.07;;;36.67;;
11255;SDS011;5685;52.384;13.420;2023-03-12T11:35:53;71.07;;;36.70;;
11255;SDS011;5685;52.384;13.420;2023-03-12T11:39:06;71.40;;;36.83;;
11255;SDS011;5685;52.384;13.420;2023-03-12T11:42:23;71.23;;;36.97;;
11255;SDS011;5685;52.384;13.420;2023-03-12T11:45:35;71.03;;;36.97;;
11255;SDS011;5685;52.384;13.420;2023-03-12T11:48:45;70.53;;;36.73;;
11255;SDS011;5685;52.384;13.420;2023-03-12T11:51:53;70.70;;;36.97;;
11255;SDS011;5685;52.384;13.420;2023-03-12T11:55:02;70.80;;;36.70;;
11255;SDS011;5685;52.384;13.420;2023-03-12T11:58:24;71.83;;;37.03;;
11255;SDS011;5685;52.384;13.420;2023-03-12T12:01:35;71.67;;;36.90;;
11255;SDS011;5685;52.384;13.420;2023-03-12T12:08:23;71.97;;;37.00;;
11255;SDS011;5685;52.384;13.420;2023-03-12T12:11:37;72.23;;;37.30;;
11255;SDS011;5685;52.384;13.420;2023-03-12T12:14:49;73.03;;;37.60;;
11255;SDS011;5685;52.384;13.420;2023-03-12T12:17:58;71.73;;;36.90;;
11255;SDS011;5685;52.384;13.420;2023-03-12T12:21:08;72.23;;;37.20;;
11255;SDS011;5685;52.384;13.420;2023-03-12T12:24:26;72.10;;;37.10;;
11255;SDS011;5685;52.384;13.420;2023-03-12T12:27:39;72.50;;;37.20;;
11255;SDS011;5685;52.384;13.420;2023-03-12T12:30:51;72.17;;;37.17;;
11255;SDS011;5685;52.384;13.420;2023-03-12T12:34:03;72.40;;;37.17;;
11255;SDS011;5685;52.384;13.420;2023-03-12T12:37:24;72.93;;;37.50;;
11255;SDS011;5685;52.384;13.420;2023-03-12T12:40:34;71.93;;;37.00;;
11255;SDS011;5685;52.384;13.420;2023-03-12T12:43:39;72.50;;;37.30;;
11255;SDS011;5685;52.384;13.420;2023-03-12T12:46:43;72.67;;;37.40;;
11255;SDS011;5685;52.384;13.420;2023-03-12T12:49:50;72.47;;;37.30;;
11255;SDS011;5685;52.384;13.420;2023-03-12T12:52:58;72.10;;;37.20;;
11255;SDS011;5685;52.384;13.420;2023-03-12T12:56:07;72.23;;;37.10;;
11255;SDS011;5685;52.384;13.420;2023-03-12T12:59:24;72.03;;;37.03;;
11255;SDS011;5685;52.384;13.420;2023-03-12T13:02:30;71.10;;;36.90;;
11255;SDS011;5685;52.384;13.420;2023-03-12T13:05:43;71.37;;;37.00;;
11255;SDS011;5685;52.384;13.420;2023-03-12T13:09:12;72.00;;;37.23;;
11255;SDS011;5685;52.384;13.420;2023-03-12T13:12:20;71.10;;;36.67;;
11255;SDS011;5685;52.384;13.420;2023-03-12T13:15:37;71.17;;;37.00;;
11255;SDS011;5685;52.384;13.420;2023-03-12T13:18:44;71.13;;;36.80;;
11255;SDS011;5685;52.384;13.420;2023-03-12T13:21:59;71.30;;;37.03;;
11255;SDS011;5685;52.384;13.420;2023-03-12T13:25:12;71.77;;;37.20;;
11255;SDS011;5685;52.384;13.420;2023-03-12T13:28:33;71.33;;;37.17;;
11255;SDS011;5685;52.384;13.420;2023-03-12T13:31:41;70.93;;;37.00;;
11255;SDS011;5685;52.384;13.420;2023-03-12T13:34:44;70.90;;;37.10;;
11255;SDS011;5685;52.384;13.420;2023-03-12T13:37:57;70.90;;;36.93;;
11255;SDS011;5685;52.384;13.420;2023-03-12T13:41:02;70.93;;;36.90;;
11255;SDS011;5685;52.384;13.420;2023-03-12T13:44:21;71.03;;;36.90;;
11255;SDS011;5685;52.384;13.420;2023-03-12T13:47:39;70.73;;;37.10;;
11255;SDS011;5685;52.384;13.420;2023-03-12T13:50:48;70.87;;;37.10;;
11255;SDS011;5685;52.384;13.420;2023-03-12T13:53:52;70.60;;;37.17;;
11255;SDS011;5685;52.384;13.420;2023-03-12T13:56:57;70.70;;;37.00;;
11255;SDS011;5685;52.384;13.420;2023-03-12T14:00:02;70.90;;;37.10;;
11255;SDS011;5685;52.384;13.420;2023-03-12T14:03:10;71.37;;;37.20;;
11255;SDS011;5685;52.384;13.420;2023-03-12T14:06:16;71.20;;;37.07;;
11255;SDS011;5685;52.384;13.420;2023-03-12T14:09:21;71.07;;;37.33;;
11255;SDS011;5685;52.384;13.420;2023-03-12T14:12:27;71.00;;;37.13;;
11255;SDS011;5685;52.384;13.420;2023-03-12T14:15:34;70.70;;;37.13;;
11255;SDS011;5685;52.384;13.420;2023-03-12T14:18:46;70.47;;;37.20;;
11255;SDS011;5685;52.384;13.420;2023-03-12T14:21:50;70.63;;;37.10;;
11255;SDS011;5685;52.384;13.420;2023-03-12T14:24:55;70.53;;;37.00;;
11255;SDS011;5685;52.384;13.420;2023-03-12T14:28:01;70.43;;;37.10;;
11255;SDS011;5685;52.384;13.420;2023-03-12T14:31:05;70.37;;;37.40;;
11255;SDS011;5685;52.384;13.420;2023-03-12T14:34:14;70.73;;;37.20;;
11255;SDS011;5685;52.384;13.420;2023-03-12T14:37:20;70.80;;;37.47;;
11255;SDS011;5685;52.384;13.420;2023-03-12T14:40:29;70.70;;;37.37;;
11255;SDS011;5685;52.384;13.420;2023-03-12T14:43:36;70.47;;;37.07;;
11255;SDS011;5685;52.384;13.420;2023-03-12T14:46:44;70.40;;;37.20;;
11255;SDS011;5685;52.384;13.420;2023-03-12T14:49:49;70.70;;;37.23;;
11255;SDS011;5685;52.384;13.420;2023-03-12T14:52:51;70.40;;;37.23;;
11255;SDS011;5685;52.384;13.420;2023-03-12T14:56:03;70.40;;;37.27;;
11255;SDS011;5685;52.384;13.420;2023-03-12T14:59:19;69.83;;;36.87;;
11255;SDS011;5685;52.384;13.420;2023-03-12T15:02:24;70.33;;;37.20;;
11255;SDS011;5685;52.384;13.420;2023-03-12T15:05:29;70.53;;;37.23;;
11255;SDS011;5685;52.384;13.420;2023-03-12T15:08:33;70.60;;;37.43;;
11255;SDS011;5685;52.384;13.420;2023-03-12T15:11:35;70.97;;;37.50;;
11255;SDS011;5685;52.384;13.420;2023-03-12T15:14:39;70.93;;;37.57;;
11255;SDS011;5685;52.384;13.420;2023-03-12T15:17:42;70.50;;;37.37;;
11255;SDS011;5685;52.384;13.420;2023-03-12T15:20:47;70.50;;;37.30;;
11255;SDS011;5685;52.384;13.420;2023-03-12T15:23:50;70.17;;;37.07;;
11255;SDS011;5685;52.384;13.420;2023-03-12T15:26:53;70.67;;;37.33;;
11255;SDS011;5685;52.384;13.420;2023-03-12T15:29:56;70.47;;;37.17;;
11255;SDS011;5685;52.384;13.420;2023-03-12T15:33:07;70.57;;;37.20;;
11255;SDS011;5685;52.384;13.420;2023-03-12T15:36:19;70.80;;;37.30;;
11255;SDS011;5685;52.384;13.420;2023-03-12T15:39:25;70.37;;;37.07;;
11255;SDS011;5685;52.384;13.420;2023-03-12T15:42:33;70.43;;;37.13;;
11255;SDS011;5685;52.384;13.420;2023-03-12T15:45:38;70.60;;;37.40;;
11255;SDS011;5685;52.384;13.420;2023-03-12T15:48:41;70.90;;;37.50;;
11255;SDS011;5685;52.384;13.420;2023-03-12T15:52:01;70.70;;;37.43;;
11255;SDS011;5685;52.384;13.420;2023-03-12T15:55:17;70.47;;;37.20;;
11255;SDS011;5685;52.384;13.420;2023-03-12T15:58:23;70.60;;;37.23;;
11255;SDS011;5685;52.384;13.420;2023-03-12T16:01:28;71.03;;;37.50;;
11255;SDS011;5685;52.384;13.420;2023-03-12T16:04:43;70.97;;;37.33;;
11255;SDS011;5685;52.384;13.420;2023-03-12T16:07:47;71.27;;;37.50;;
11255;SDS011;5685;52.384;13.420;2023-03-12T16:10:49;71.00;;;37.37;;
11255;SDS011;5685;52.384;13.420;2023-03-12T16:13:53;70.73;;;37.07;;
11255;SDS011;5685;52.384;13.420;2023-03-12T16:16:58;70.63;;;37.10;;
11255;SDS011;5685;52.384;13.420;2023-03-12T16:20:01;70.60;;;37.10;;
11255;SDS011;5685;52.384;13.420;2023-03-12T16:23:07;70.77;;;37.27;;
11255;SDS011;5685;52.384;13.420;2023-03-12T16:26:10;70.73;;;37.20;;
11255;SDS011;5685;52.384;13.420;2023-03-12T16:29:13;70.80;;;37.30;;
11255;SDS011;5685;52.384;13.420;2023-03-12T16:32:17;71.30;;;37.47;;
11255;SDS011;5685;52.384;13.420;2023-03-12T16:35:19;71.00;;;37.20;;
11255;SDS011;5685;52.384;13.420;2023-03-12T16:38:24;71.07;;;37.13;;
11255;SDS011;5685;52.384;13.420;2023-03-12T16:41:26;71.93;;;37.60;;
11255;SDS011;5685;52.384;13.420;2023-03-12T16:44:31;72.13;;;37.70;;
11255;SDS011;5685;52.384;13.420;2023-03-12T16:47:35;71.50;;;37.40;;
11255;SDS011;5685;52.384;13.420;2023-03-12T16:50:38;71.63;;;37.40;;
11255;SDS011;5685;52.384;13.420;2023-03-12T16:53:42;71.97;;;37.60;;
11255;SDS011;5685;52.384;13.420;2023-03-12T16:56:45;71.93;;;37.40;;
11255;SDS011;5685;52.384;13.420;2023-03-12T16:59:48;71.80;;;37.37;;
11255;SDS011;5685;52.384;13.420;2023-03-12T17:02:51;71.77;;;37.27;;
11255;SDS011;5685;52.384;13.420;2023-03-12T17:05:56;71.67;;;37.30;;
11255;SDS011;5685;52.384;13.420;2023-03-12T17:09:01;71.80;;;37.50;;
11255;SDS011;5685;52.384;13.420;2023-03-12T17:12:05;71.97;;;37.50;;
11255;SDS011;5685;52.384;13.420;2023-03-12T17:15:11;71.50;;;37.40;;
11255;SDS011;5685;52.384;13.420;2023-03-12T17:18:15;71.83;;;37.40;;
11255;SDS011;5685;52.384;13.420;2023-03-12T17:21:19;71.43;;;37.30;;
11255;SDS011;5685;52.384;13.420;2023-03-12T17:24:23;71.23;;;37.10;;
11255;SDS011;5685;52.384;13.420;2023-03-12T17:27:27;71.13;;;37.20;;
11255;SDS011;5685;52.384;13.420;2023-03-12T17:30:30;71.17;;;37.37;;
11255;SDS011;5685;52.384;13.420;2023-03-12T17:33:33;70.90;;;37.13;;
11255;SDS011;5685;52.384;13.420;2023-03-12T17:36:37;70.57;;;37.00;;
11255;SDS011;5685;52.384;13.420;2023-03-12T17:39:41;70.60;;;37.00;;
11255;SDS011;5685;52.384;13.420;2023-03-12T17:42:44;70.90;;;37.37;;
11255;SDS011;5685;52.384;13.420;2023-03-12T17:45:46;71.37;;;37.50;;
11255;SDS011;5685;52.384;13.420;2023-03-12T17:48:49;71.27;;;37.57;;
11255;SDS011;5685;52.384;13.420;2023-03-12T17:51:52;70.83;;;37.17;;
11255;SDS011;5685;52.384;13.420;2023-03-12T17:54:56;71.20;;;37.37;;
11255;SDS011;5685;52.384;13.420;2023-03-12T17:57:59;71.30;;;37.33;;
11255;SDS011;5685;52.384;13.420;2023-03-12T18:01:03;71.30;;;37.40;;
11255;SDS011;5685;52.384;13.420;2023-03-12T18:04:06;71.03;;;37.23;;
11255;SDS011;5685;52.384;13.420;2023-03-12T18:07:08;70.40;;;36.97;;
11255;SDS011;5685;52.384;13.420;2023-03-12T18:10:13;70.60;;;37.07;;